createdAt,value
2018-01-02T00:02:09.656Z,2.76
2018-01-02T00:04:37.223Z,2.71
2018-01-02T00:07:04.839Z,2.62
2018-01-02T00:09:32.403Z,2.64
2018-01-02T00:11:59.982Z,2.59
2018-01-02T00:14:27.651Z,2.54
2018-01-02T00:16:55.218Z,2.62
2018-01-02T00:19:22.793Z,2.60
2018-01-02T00:21:50.414Z,2.54
2018-01-02T00:24:17.987Z,2.46
2018-01-02T00:26:45.568Z,2.38
2018-01-02T00:29:13.186Z,2.40
2018-01-02T00:31:40.770Z,2.48
2018-01-02T00:34:08.346Z,2.53
2018-01-02T00:36:35.969Z,2.63
2018-01-02T00:39:03.628Z,2.53
2018-01-02T00:41:31.207Z,2.50
2018-01-02T00:43:58.831Z,2.54
2018-01-02T00:46:26.414Z,2.55
2018-01-02T00:48:53.990Z,2.52
2018-01-02T00:51:21.606Z,2.47
2018-01-02T00:53:49.189Z,2.51
2018-01-02T00:56:16.900Z,2.61
2018-01-02T00:58:44.518Z,2.58
2018-01-02T01:01:12.328Z,2.50
2018-01-02T01:03:39.906Z,2.33
2018-01-02T01:06:07.521Z,2.29
2018-01-02T01:08:35.106Z,2.27
2018-01-02T01:11:02.676Z,2.28
2018-01-02T01:13:30.322Z,2.27
2018-01-02T01:15:57.900Z,2.20
2018-01-02T01:18:25.485Z,2.21
2018-01-02T01:20:53.112Z,2.25
2018-01-02T01:23:20.676Z,2.35
2018-01-02T01:25:48.248Z,2.42
2018-01-02T01:28:15.878Z,2.38
2018-01-02T01:30:43.462Z,2.38
2018-01-02T01:33:11.041Z,2.36
2018-01-02T01:35:38.656Z,2.32
2018-01-02T01:38:06.249Z,2.32
2018-01-02T01:40:33.853Z,2.21
2018-01-02T01:43:01.485Z,2.20
2018-01-02T01:45:29.055Z,2.36
2018-01-02T01:47:56.645Z,2.35
2018-01-02T01:50:24.257Z,2.30
2018-01-02T01:52:51.824Z,2.28
2018-01-02T01:55:19.397Z,2.42
2018-01-02T01:57:46.995Z,2.41
2018-01-02T02:00:14.599Z,2.31
2018-01-02T02:02:42.226Z,2.30
2018-01-02T02:05:09.839Z,2.45
2018-01-02T02:07:37.408Z,2.54
2018-01-02T02:10:04.998Z,2.62
2018-01-02T02:12:32.614Z,2.64
2018-01-02T02:15:00.198Z,2.61
2018-01-02T02:17:28.687Z,2.60
2018-01-02T02:19:56.497Z,2.70
2018-01-02T02:22:24.081Z,2.66
2018-01-02T02:24:51.660Z,2.59
2018-01-02T02:27:19.263Z,2.49
2018-01-02T02:29:46.831Z,2.57
2018-01-02T02:32:14.386Z,2.59
2018-01-02T02:34:42.012Z,2.56
2018-01-02T02:37:09.591Z,2.54
2018-01-02T02:39:37.183Z,2.52
2018-01-02T02:42:04.805Z,2.54
2018-01-02T02:44:32.390Z,2.58
2018-01-02T02:46:59.972Z,2.55
2018-01-02T02:49:27.585Z,2.58
2018-01-02T02:51:55.158Z,2.45
2018-01-02T02:54:22.712Z,2.38
2018-01-02T02:56:50.323Z,2.33
2018-01-02T02:59:17.898Z,2.32
2018-01-02T03:01:45.494Z,2.35
2018-01-02T03:04:13.101Z,2.38
2018-01-02T03:06:40.690Z,2.47
2018-01-02T03:09:08.269Z,2.50
2018-01-02T03:11:35.881Z,2.52
2018-01-02T03:14:03.457Z,2.58
2018-01-02T03:16:31.137Z,2.59
2018-01-02T03:18:58.742Z,2.56
2018-01-02T03:21:26.325Z,2.64
2018-01-02T03:23:53.910Z,2.58
2018-01-02T03:26:21.556Z,2.52
2018-01-02T03:28:49.127Z,2.52
2018-01-02T03:31:16.711Z,2.45
2018-01-02T03:33:44.322Z,2.42
2018-01-02T03:36:11.893Z,2.33
2018-01-02T03:38:39.464Z,2.26
2018-01-02T03:41:07.081Z,2.26
2018-01-02T03:43:34.662Z,2.29
2018-01-02T03:46:02.249Z,2.26
2018-01-02T03:48:29.879Z,2.23
2018-01-02T03:50:57.443Z,2.22
2018-01-02T03:53:25.021Z,2.21
2018-01-02T03:55:52.656Z,2.19
2018-01-02T03:58:20.235Z,2.12
2018-01-02T04:00:47.813Z,2.20
2018-01-02T04:03:15.481Z,2.26
2018-01-02T04:05:43.059Z,2.28
2018-01-02T04:08:10.634Z,2.42
2018-01-02T04:10:38.327Z,2.47
2018-01-02T04:13:05.905Z,2.44
2018-01-02T04:15:33.454Z,2.47
2018-01-02T04:18:01.073Z,2.38
2018-01-02T04:20:28.648Z,2.33
2018-01-02T04:22:56.239Z,2.28
2018-01-02T04:25:23.849Z,2.31
2018-01-02T04:27:51.418Z,2.29
2018-01-02T04:30:18.973Z,2.27
2018-01-02T04:32:46.589Z,2.31
2018-01-02T04:35:14.173Z,2.33
2018-01-02T04:37:41.753Z,2.31
2018-01-02T04:40:09.421Z,2.25
2018-01-02T04:42:37.002Z,2.16
2018-01-02T04:45:04.563Z,2.16
2018-01-02T04:47:32.184Z,2.17
2018-01-02T04:49:59.774Z,2.18
2018-01-02T04:52:27.358Z,2.22
2018-01-02T04:54:54.976Z,2.20
2018-01-02T04:57:22.558Z,2.16
2018-01-02T04:59:50.119Z,2.18
2018-01-02T05:02:17.751Z,2.21
2018-01-02T05:04:45.341Z,2.22
2018-01-02T05:07:12.945Z,2.14
2018-01-02T05:09:40.678Z,2.13
2018-01-02T05:12:08.270Z,2.17
2018-01-02T05:14:36.012Z,2.12
2018-01-02T05:17:03.616Z,2.14
2018-01-02T05:19:31.186Z,2.20
2018-01-02T05:21:58.761Z,2.16
2018-01-02T05:24:26.399Z,2.16
2018-01-02T05:26:54.015Z,2.19
2018-01-02T05:29:21.662Z,2.25
2018-01-02T05:31:49.272Z,2.26
2018-01-02T05:34:16.853Z,2.26
2018-01-02T05:36:44.440Z,2.27
2018-01-02T05:39:12.062Z,2.36
2018-01-02T05:41:39.640Z,2.33
2018-01-02T05:44:07.229Z,2.32
2018-01-02T05:46:34.853Z,2.26
2018-01-02T05:49:02.426Z,2.12
2018-01-02T05:51:29.978Z,2.00
2018-01-02T05:53:57.596Z,2.14
2018-01-02T05:56:25.164Z,2.22
2018-01-02T05:58:52.745Z,2.26
2018-01-02T06:01:20.360Z,2.29
2018-01-02T06:03:47.950Z,2.35
2018-01-02T06:06:15.568Z,2.39
2018-01-02T06:08:43.180Z,2.51
2018-01-02T06:11:10.790Z,2.53
2018-01-02T06:13:38.363Z,2.49
2018-01-02T06:16:05.991Z,2.49
2018-01-02T06:18:33.592Z,2.49
2018-01-02T06:21:01.216Z,2.55
2018-01-02T06:23:28.938Z,2.56
2018-01-02T06:25:56.588Z,2.65
2018-01-02T06:28:24.172Z,2.81
2018-01-02T06:30:51.802Z,2.82
2018-01-02T06:33:19.391Z,2.78
2018-01-02T06:35:46.961Z,2.67
2018-01-02T06:38:14.571Z,2.46
2018-01-02T06:40:42.143Z,2.35
2018-01-02T06:43:09.716Z,2.32
2018-01-02T06:45:37.348Z,2.43
2018-01-02T06:48:04.930Z,2.52
2018-01-02T06:50:32.502Z,2.57
2018-01-02T06:53:00.158Z,2.89
2018-01-02T06:55:27.734Z,3.49
2018-01-02T06:57:55.309Z,5.14
2018-01-02T07:00:22.930Z,6.75
2018-01-02T07:02:50.497Z,8.02
2018-01-02T07:05:18.081Z,8.78
2018-01-02T07:07:45.720Z,9.74
2018-01-02T07:10:13.300Z,10.68
2018-01-02T07:12:40.887Z,11.39
2018-01-02T07:15:08.511Z,11.17
2018-01-02T07:17:36.092Z,11.45
2018-01-02T07:20:03.717Z,11.60
2018-01-02T07:22:31.346Z,12.13
2018-01-02T07:24:58.968Z,12.28
2018-01-02T07:27:26.543Z,12.26
2018-01-02T07:29:54.150Z,12.37
2018-01-02T07:32:21.739Z,12.76
2018-01-02T07:34:49.335Z,13.16
2018-01-02T07:37:16.956Z,13.52
2018-01-02T07:39:44.523Z,14.02
2018-01-02T07:42:12.087Z,14.36
2018-01-02T07:44:39.755Z,14.52
2018-01-02T07:47:07.349Z,14.53
2018-01-02T07:49:34.936Z,14.94
2018-01-02T07:52:02.555Z,15.38
2018-01-02T07:54:30.133Z,15.48
2018-01-02T07:56:57.728Z,15.22
2018-01-02T07:59:25.353Z,14.82
2018-01-02T08:01:55.855Z,15.25
2018-01-02T08:04:23.456Z,16.04
2018-01-02T08:06:51.118Z,16.42
2018-01-02T08:09:18.704Z,16.54
2018-01-02T08:11:46.294Z,16.79
2018-01-02T08:14:13.927Z,16.61
2018-01-02T08:16:41.528Z,16.35
2018-01-02T08:19:09.115Z,16.82
2018-01-02T08:21:36.751Z,17.43
2018-01-02T08:24:04.389Z,16.87
2018-01-02T08:26:31.982Z,16.81
2018-01-02T08:28:59.617Z,16.33
2018-01-02T08:31:27.192Z,15.48
2018-01-02T08:33:54.782Z,14.55
2018-01-02T08:36:28.229Z,14.13
2018-01-02T08:38:55.913Z,13.68
2018-01-02T08:41:23.537Z,13.28
2018-01-02T08:43:51.173Z,12.85
2018-01-02T08:46:18.766Z,12.65
2018-01-02T08:48:46.401Z,12.55
2018-01-02T08:51:14.103Z,12.78
2018-01-02T08:53:41.689Z,12.98
2018-01-02T08:56:09.285Z,13.35
2018-01-02T08:58:36.923Z,13.39
2018-01-02T09:01:04.510Z,13.45
2018-01-02T09:03:32.117Z,13.83
2018-01-02T09:05:59.753Z,14.36
2018-01-02T09:08:27.357Z,14.32
2018-01-02T09:10:54.998Z,14.49
2018-01-02T09:16:21.710Z,14.63
2018-01-02T09:18:49.329Z,14.67
2018-01-02T09:21:16.921Z,14.51
2018-01-02T09:23:44.534Z,14.41
2018-01-02T09:26:12.270Z,14.34
2018-01-02T09:28:39.854Z,14.33
2018-01-02T09:31:07.446Z,14.24
2018-01-02T09:33:35.081Z,14.14
2018-01-02T09:36:02.669Z,14.01
2018-01-02T09:38:30.233Z,13.62
2018-01-02T09:40:57.853Z,13.48
2018-01-02T09:43:25.427Z,13.31
2018-01-02T09:45:53.105Z,13.30
2018-01-02T09:48:20.715Z,13.41
2018-01-02T09:50:48.299Z,13.15
2018-01-02T09:53:15.872Z,13.24
2018-01-02T09:55:43.520Z,13.20
2018-01-02T09:58:11.088Z,13.00
2018-01-02T10:00:38.744Z,13.26
2018-01-02T10:03:06.350Z,13.64
2018-01-02T10:05:33.944Z,14.15
2018-01-02T10:08:01.565Z,14.73
2018-01-02T10:10:29.215Z,15.11
2018-01-02T10:12:56.816Z,15.36
2018-01-02T10:15:24.461Z,15.37
2018-01-02T10:17:52.224Z,15.32
2018-01-02T10:20:19.790Z,15.25
2018-01-02T10:22:47.375Z,15.10
2018-01-02T10:25:14.988Z,15.06
2018-01-02T10:27:42.760Z,15.08
2018-01-02T10:30:10.345Z,15.17
2018-01-02T10:32:37.960Z,15.00
2018-01-02T10:35:05.518Z,14.77
2018-01-02T10:37:33.097Z,14.88
2018-01-02T10:40:00.695Z,14.85
2018-01-02T10:42:28.248Z,14.79
2018-01-02T10:44:55.806Z,14.85
2018-01-02T10:47:23.404Z,14.77
2018-01-02T10:49:50.959Z,14.67
2018-01-02T10:52:18.540Z,14.10
2018-01-02T10:54:46.144Z,13.93
2018-01-02T10:57:13.837Z,13.89
2018-01-02T10:59:41.425Z,13.85
2018-01-02T11:02:09.048Z,13.74
2018-01-02T11:04:36.655Z,13.72
2018-01-02T11:07:04.231Z,13.61
2018-01-02T11:09:31.869Z,13.59
2018-01-02T11:11:59.464Z,13.48
2018-01-02T11:14:42.921Z,13.29
2018-01-02T11:17:10.500Z,13.21
2018-01-02T11:19:38.109Z,13.08
2018-01-02T11:22:05.819Z,12.95
2018-01-02T11:24:33.400Z,12.76
2018-01-02T11:27:00.967Z,12.59
2018-01-02T11:29:28.603Z,12.47
2018-01-02T11:31:56.264Z,12.16
2018-01-02T11:34:23.850Z,12.06
2018-01-02T11:36:51.472Z,11.91
2018-01-02T11:39:19.039Z,11.76
2018-01-02T11:41:46.583Z,11.65
2018-01-02T11:44:14.200Z,11.71
2018-01-02T11:46:41.771Z,11.72
2018-01-02T11:49:09.344Z,11.67
2018-01-02T11:51:36.959Z,11.65
2018-01-02T11:54:04.563Z,11.54
2018-01-02T11:56:32.190Z,11.51
2018-01-02T11:58:59.816Z,11.48
2018-01-02T12:01:27.427Z,11.47
2018-01-02T12:03:55.010Z,11.46
2018-01-02T12:06:22.626Z,11.44
2018-01-02T12:08:50.187Z,11.45
2018-01-02T12:11:17.754Z,11.39
2018-01-02T12:13:45.395Z,11.25
2018-01-02T12:16:12.956Z,11.16
2018-01-02T12:18:40.518Z,11.18
2018-01-02T12:21:08.116Z,11.22
2018-01-02T12:23:35.717Z,11.28
2018-01-02T12:26:03.270Z,11.43
2018-01-02T12:28:30.877Z,11.63
2018-01-02T12:30:58.505Z,11.72
2018-01-02T12:33:26.579Z,11.72
2018-01-02T12:35:54.181Z,11.71
2018-01-02T12:38:21.751Z,11.73
2018-01-02T12:40:49.301Z,11.80
2018-01-02T12:43:16.905Z,11.89
2018-01-02T12:45:44.475Z,12.11
2018-01-02T12:48:12.053Z,12.32
2018-01-02T12:50:39.631Z,12.47
2018-01-02T12:53:07.218Z,12.55
2018-01-02T12:55:34.794Z,12.62
2018-01-02T12:58:02.415Z,12.77
2018-01-02T13:00:29.993Z,14.07
2018-01-02T13:02:57.565Z,15.71
2018-01-02T13:05:25.172Z,17.52
2018-01-02T13:07:52.745Z,18.59
2018-01-02T13:10:20.320Z,19.27
2018-01-02T13:12:47.907Z,20.05
2018-01-02T13:15:15.491Z,20.47
2018-01-02T13:17:43.119Z,21.54
2018-01-02T13:20:10.742Z,22.09
2018-01-02T13:22:38.303Z,22.20
2018-01-02T13:25:05.882Z,22.78
2018-01-02T13:27:33.486Z,22.68
2018-01-02T13:30:01.054Z,23.02
2018-01-02T13:32:28.665Z,22.13
2018-01-02T13:34:56.292Z,21.74
2018-01-02T13:37:23.967Z,21.44
2018-01-02T13:39:51.562Z,21.40
2018-01-02T13:42:19.213Z,21.46
2018-01-02T13:44:46.765Z,21.49
2018-01-02T13:47:14.348Z,20.75
2018-01-02T13:49:41.954Z,20.58
2018-01-02T13:52:09.557Z,20.58
2018-01-02T13:54:37.144Z,20.74
2018-01-02T13:57:04.762Z,20.95
2018-01-02T13:59:32.355Z,20.93
2018-01-02T14:01:59.951Z,20.65
2018-01-02T14:04:27.641Z,19.90
2018-01-02T14:06:55.230Z,19.39
2018-01-02T14:09:22.832Z,19.16
2018-01-02T14:11:50.442Z,18.44
2018-01-02T14:14:18.085Z,17.52
2018-01-02T14:16:45.659Z,16.52
2018-01-02T14:19:13.268Z,15.59
2018-01-02T14:21:40.843Z,14.95
2018-01-02T14:24:08.425Z,14.37
2018-01-02T14:26:36.040Z,13.79
2018-01-02T14:29:03.644Z,13.13
2018-01-02T14:31:31.216Z,12.67
2018-01-02T14:33:58.832Z,12.03
2018-01-02T14:36:26.430Z,11.67
2018-01-02T14:38:54.003Z,11.24
2018-01-02T14:41:21.636Z,10.76
2018-01-02T14:43:49.220Z,10.41
2018-01-02T14:46:16.815Z,10.16
2018-01-02T14:48:44.462Z,9.98
2018-01-02T14:51:12.129Z,9.66
2018-01-02T14:53:39.733Z,9.45
2018-01-02T14:56:07.369Z,9.39
2018-01-02T14:58:34.961Z,9.26
2018-01-02T15:01:02.698Z,9.22
2018-01-02T15:03:30.341Z,9.09
2018-01-02T15:05:57.937Z,8.90
2018-01-02T15:08:25.491Z,8.69
2018-01-02T15:10:53.099Z,8.53
2018-01-02T15:13:20.687Z,8.42
2018-01-02T15:15:48.276Z,8.32
2018-01-02T15:18:15.900Z,8.20
2018-01-02T15:20:43.484Z,8.07
2018-01-02T15:23:11.076Z,8.03
2018-01-02T15:25:38.686Z,8.09
2018-01-02T15:28:06.311Z,8.00
2018-01-02T15:30:33.897Z,7.92
2018-01-02T15:33:01.568Z,7.84
2018-01-02T15:35:29.149Z,7.77
2018-01-02T15:37:56.741Z,7.70
2018-01-02T15:40:24.348Z,7.66
2018-01-02T15:42:51.912Z,7.63
2018-01-02T15:45:19.496Z,7.47
2018-01-02T15:47:47.112Z,7.41
2018-01-02T15:50:14.708Z,7.30
2018-01-02T15:52:42.340Z,7.15
2018-01-02T15:55:09.956Z,7.00
2018-01-02T15:57:37.522Z,6.93
2018-01-02T16:00:05.109Z,6.82
2018-01-02T16:02:32.785Z,6.72
2018-01-02T16:05:00.380Z,6.72
2018-01-02T16:07:27.972Z,6.70
2018-01-02T16:09:55.603Z,6.53
2018-01-02T16:12:23.187Z,6.48
2018-01-02T16:14:50.771Z,6.47
2018-01-02T16:17:18.381Z,6.42
2018-01-02T16:19:45.995Z,6.27
2018-01-02T16:22:13.571Z,6.21
2018-01-02T16:24:41.306Z,6.17
2018-01-02T16:27:08.913Z,6.15
2018-01-02T16:29:36.829Z,6.16
2018-01-02T16:32:04.497Z,6.15
2018-01-02T16:34:32.075Z,6.06
2018-01-02T16:36:59.816Z,6.02
2018-01-02T16:39:27.444Z,5.93
2018-01-02T16:41:55.016Z,5.89
2018-01-02T16:44:22.614Z,5.87
2018-01-02T16:46:50.253Z,5.81
2018-01-02T16:49:17.825Z,5.75
2018-01-02T16:51:45.933Z,5.70
2018-01-02T16:54:13.549Z,5.67
2018-01-02T16:56:41.115Z,5.57
2018-01-02T16:59:08.711Z,5.41
2018-01-02T17:01:36.341Z,5.32
2018-01-02T17:04:03.922Z,5.32
2018-01-02T17:06:31.500Z,5.37
2018-01-02T17:08:59.104Z,5.56
2018-01-02T17:11:26.889Z,5.53
2018-01-02T17:13:54.464Z,5.67
2018-01-02T17:16:22.094Z,5.59
2018-01-02T17:18:49.647Z,5.36
2018-01-02T17:21:17.213Z,5.50
2018-01-02T17:23:44.826Z,5.88
2018-01-02T17:26:12.407Z,5.78
2018-01-02T17:28:39.977Z,5.55
2018-01-02T17:31:07.588Z,5.49
2018-01-02T17:33:35.205Z,5.39
2018-01-02T17:36:02.803Z,5.20
2018-01-02T17:38:30.427Z,5.27
2018-01-02T17:40:58.009Z,5.23
2018-01-02T17:43:25.567Z,5.08
2018-01-02T17:45:53.165Z,4.91
2018-01-02T17:48:20.746Z,5.01
2018-01-02T17:50:48.333Z,4.89
2018-01-02T17:53:15.943Z,4.74
2018-01-02T17:55:43.524Z,4.66
2018-01-02T17:58:11.257Z,4.69
2018-01-02T18:00:38.881Z,4.61
2018-01-02T18:03:06.448Z,4.56
2018-01-02T18:05:34.012Z,4.45
2018-01-02T18:08:01.639Z,4.32
2018-01-02T18:10:29.209Z,4.20
2018-01-02T18:12:56.765Z,4.00
2018-01-02T18:15:24.403Z,4.09
2018-01-02T18:17:52.041Z,4.09
2018-01-02T18:20:19.616Z,4.15
2018-01-02T18:22:47.285Z,4.33
2018-01-02T18:25:14.851Z,4.23
2018-01-02T18:27:42.417Z,4.08
2018-01-02T18:30:10.030Z,4.09
2018-01-02T18:32:37.588Z,3.99
2018-01-02T18:35:05.140Z,3.91
2018-01-02T18:37:32.747Z,3.89
2018-01-02T18:40:00.317Z,3.85
2018-01-02T18:42:27.884Z,3.75
2018-01-02T18:44:55.477Z,4.00
2018-01-02T18:47:23.035Z,3.89
2018-01-02T18:49:50.618Z,3.79
2018-01-02T18:52:18.228Z,3.78
2018-01-02T18:54:45.855Z,3.72
2018-01-02T18:57:13.476Z,3.69
2018-01-02T18:59:41.101Z,3.66
2018-01-02T19:02:08.673Z,3.60
2018-01-02T19:04:36.252Z,3.48
2018-01-02T19:07:03.887Z,3.48
2018-01-02T19:09:31.462Z,3.57
2018-01-02T19:11:59.038Z,3.63
2018-01-02T19:14:26.645Z,3.61
2018-01-02T19:16:54.203Z,3.61
2018-01-02T19:19:21.761Z,3.62
2018-01-02T19:21:49.354Z,3.58
2018-01-02T19:24:16.935Z,3.63
2018-01-02T19:26:44.504Z,3.67
2018-01-02T19:29:12.094Z,3.64
2018-01-02T19:31:39.658Z,3.61
2018-01-02T19:34:07.219Z,3.68
2018-01-02T19:36:34.815Z,3.78
2018-01-02T19:39:02.393Z,3.84
2018-01-02T19:41:30.006Z,3.89
2018-01-02T19:43:57.610Z,3.95
2018-01-02T19:46:25.234Z,4.03
2018-01-02T19:48:52.810Z,4.01
2018-01-02T19:51:20.448Z,4.10
2018-01-02T19:53:48.026Z,4.19
2018-01-02T19:56:15.601Z,4.20
2018-01-02T19:58:43.191Z,4.26
2018-01-02T20:01:10.772Z,4.33
2018-01-02T20:03:38.364Z,4.35
2018-01-02T20:06:06.018Z,4.30
2018-01-02T20:08:33.587Z,4.22
2018-01-02T20:11:01.174Z,4.23
2018-01-02T20:13:28.791Z,4.27
2018-01-02T20:15:56.351Z,4.28
2018-01-02T20:18:29.511Z,4.26
2018-01-02T20:20:57.081Z,4.19
2018-01-02T20:23:24.664Z,4.14
2018-01-02T20:25:52.277Z,4.06
2018-01-02T20:28:19.841Z,4.08
2018-01-02T20:30:47.493Z,4.04
2018-01-02T20:33:15.098Z,3.98
2018-01-02T20:35:42.673Z,3.91
2018-01-02T20:38:10.240Z,3.88
2018-01-02T20:40:37.830Z,3.79
2018-01-02T20:43:05.431Z,3.77
2018-01-02T20:45:33.055Z,3.69
2018-01-02T20:48:00.671Z,3.67
2018-01-02T20:50:28.269Z,3.63
2018-01-02T20:52:55.853Z,3.62
2018-01-02T20:55:23.500Z,3.56
2018-01-02T20:57:51.158Z,3.55
2018-01-02T21:00:18.746Z,3.61
2018-01-02T21:02:46.359Z,3.67
2018-01-02T21:05:13.936Z,3.68
2018-01-02T21:07:41.512Z,3.64
2018-01-02T21:10:09.151Z,3.62
2018-01-02T21:12:36.734Z,3.57
2018-01-02T21:15:04.355Z,3.52
2018-01-02T21:17:31.977Z,3.38
2018-01-02T21:19:59.558Z,3.38
2018-01-02T21:22:27.133Z,3.41
2018-01-02T21:24:54.754Z,3.43
2018-01-02T21:27:22.318Z,3.48
2018-01-02T21:29:49.905Z,3.54
2018-01-02T21:32:17.486Z,3.51
2018-01-02T21:34:45.073Z,3.56
2018-01-02T21:37:12.652Z,3.63
2018-01-02T21:39:40.264Z,3.67
2018-01-02T21:42:07.828Z,3.70
2018-01-02T21:44:35.432Z,3.79
2018-01-02T21:47:03.045Z,3.82
2018-01-02T21:49:30.610Z,3.80
2018-01-02T21:51:58.198Z,3.82
2018-01-02T21:54:25.845Z,3.83
2018-01-02T21:56:53.509Z,3.76
2018-01-02T21:59:21.132Z,3.76
2018-01-02T22:01:48.792Z,3.78
2018-01-02T22:04:16.385Z,3.84
2018-01-02T22:06:43.969Z,3.92
2018-01-02T22:09:11.573Z,4.00
2018-01-02T22:11:39.248Z,4.05
2018-01-02T22:14:06.832Z,4.10
2018-01-02T22:16:34.446Z,4.17
2018-01-02T22:19:02.045Z,4.08
2018-01-02T22:21:29.607Z,4.10
2018-01-02T22:23:57.221Z,4.16
2018-01-02T22:26:24.793Z,4.14
2018-01-02T22:28:52.361Z,4.23
2018-01-02T22:31:19.964Z,4.21
2018-01-02T22:33:47.527Z,4.20
2018-01-02T22:36:15.102Z,4.07
2018-01-02T22:38:42.902Z,4.09
2018-01-02T22:41:10.474Z,4.08
2018-01-02T22:43:38.029Z,4.15
2018-01-02T22:46:06.240Z,4.22
2018-01-02T22:48:33.808Z,4.26
2018-01-02T22:51:01.390Z,4.36
2018-01-02T22:53:28.987Z,4.44
2018-01-02T22:55:56.638Z,4.50
2018-01-02T22:58:24.213Z,4.56
2018-01-02T23:00:51.813Z,4.57
2018-01-02T23:03:19.387Z,4.58
2018-01-02T23:05:46.952Z,4.62
2018-01-02T23:08:14.556Z,4.63
2018-01-02T23:10:42.121Z,4.68
2018-01-02T23:13:09.755Z,4.72
2018-01-02T23:15:37.334Z,4.77
2018-01-02T23:18:04.904Z,4.78
2018-01-02T23:20:32.514Z,4.81
2018-01-02T23:23:00.078Z,4.85
2018-01-02T23:25:27.632Z,4.82
2018-01-02T23:27:55.227Z,4.79
2018-01-02T23:30:22.797Z,4.84
2018-01-02T23:32:50.376Z,4.90
2018-01-02T23:35:17.988Z,4.81
2018-01-02T23:37:45.558Z,4.80
2018-01-02T23:40:13.135Z,4.75
2018-01-02T23:42:40.781Z,4.68
2018-01-02T23:45:08.338Z,4.69
2018-01-02T23:47:35.918Z,4.61
2018-01-02T23:50:03.521Z,4.75
2018-01-02T23:52:31.095Z,4.77
2018-01-02T23:54:58.664Z,4.77
2018-01-02T23:57:26.281Z,4.75
2018-01-02T23:59:53.851Z,4.80
